Walker, Missouri
Current Conditions -  °F | °C
As of 11:55 PM on Saturday 22 Nov 2014 (Local Time) from KPTS Reporting Station
Scattered Clouds Scattered Clouds  
Wind Chill: 54°   Ceiling: Unl
Heat Index: 54°   Visibility: 10mi
Dew Point: 54°   Wind: 3mph
Humidity: 100%   Direction: 150°SSE
Pressure: 29.7"   Gusts: NA
Location:  37.9°N, 94.23°W
Report Text: KPTS 230555Z AUTO 15003KT 10SM SCT018 SCT035 12/12 A2970 RMK AO2 T01200120
Loading
Personal Weather Stations






























Interactive Weather Map New forecast layout! Learn more

10-Day Weather Forecast

Advertisements
Track Severe Weather on mobile